Impacts TAF Board
For situational awareness. Not to be used for flight planning purposes.
IDs:

KCXO - Conroe/Executive Arp, TX, US

Issued at 1721 UTC 21 May 2022
Updated at 2211 UTC 21 May 2022
Potential Impact None Slight Moderate High
Time2153Z 21/23Z 22/00Z 22/01Z 22/02Z 22/03Z 22/04Z 22/05Z 22/06Z 22/07Z 22/08Z 22/09Z 22/10Z 22/11Z>>
Type OBS PRVL PRVL PRVL PRVL PRVL PRVL PRVL PRVL PRVL
  [TEMP]  
PRVL
  [TEMP]  
PRVL
  [TEMP]  
PRVL
  [TEMP]  
PRVL
  [TEMP]  
VIS 10 >6 >6 >6 >6 >6 >6 >6 >6 >6
  [2]  
>6
  [2]  
>6
  [2]  
>6
  [2]  
>6
  [>6]  
CIG 40 -- -- -- 150 150 150 150 20 20
  [10]  
20
  [10]  
20
  [10]  
20
  [10]  
15
  [7]  
Cover BKN SCT SCT SCT BKN BKN BKN BKN BKN BKN
  [BKN]  
BKN
  [BKN]  
BKN
  [BKN]  
BKN
  [BKN]  
BKN
  [BKN]  
FltCat VFR VFR VFR VFR VFR VFR VFR VFR MVFR MVFR
  [IFR]  
MVFR
  [IFR]  
MVFR
  [IFR]  
MVFR
  [IFR]  
MVFR
  [IFR]  
WX -- -- -- -- -- -- -- -- -RA VCTS -RA VCTS
  [TSRA]  
-RA VCTS
  [TSRA]  
-RA VCTS
  [TSRA]  
-RA VCTS
  [TSRA]  
VCSH
  [--]  
WDir 120 160 160 160 150 150 150 150 150 150
[VRB]
150
[VRB]
150
[VRB]
150
[VRB]
20
[20]
WSpd 9 12 12 12 9 9 9 9 10 10
  [25]  
10
  [25]  
10
  [25]  
10
  [25]  
12
  [12]  
WGst 18 22 22 22 -- -- -- -- -- --
  [--]  
--
  [--]  
--
  [--]  
--
  [--]  
--
  [--]  
WSHgt -- -- -- -- -- -- -- -- -- --
[--]
--
[--]
--
[--]
--
[--]
--
[--]
WSDir -- -- -- -- -- -- -- -- -- --
[--]
--
[--]
--
[--]
--
[--]
--
[--]
WSSpd -- -- -- -- -- -- -- -- -- --
[--]
--
[--]
--
[--]
--
[--]
--
[--]
Raw TAF
KCXO 211721Z 2118/2218 16012G22KT P6SM SCT040
  FM220200 15009KT P6SM SCT025 BKN150
  FM220600 15010KT P6SM -RA VCTS BKN020CB
  TEMPO 2207/2211 VRB25KT 2SM TSRA BKN010CB
  FM221100 02012KT P6SM VCSH SCT008 BKN015
  TEMPO 2211/2214 BKN007
  FM221700 02009KT P6SM VCSH SCT025 BKN120


Raw METAR
KCXO 212153Z 12009G18KT 10SM BKN040 BKN050 32/25 A2987 RMK AO2 SLP111 T03220250
KCXO 212053Z 14012G24KT 10SM SCT038 34/24 A2986 RMK AO2 SLP107 T03440244 58013
KCXO 211953Z 15015G23KT 10SM SCT042 SCT055 35/24 A2988 RMK AO2 SLP114 T03500244

METAR Board
Radar Display
Forecast Discussion
For situational awareness. Not to be used for flight planning purposes.